createdAt,value
2023-03-29T00:01:36.726Z,98780.38
2023-03-29T00:04:06.450Z,98785.06
2023-03-29T00:06:35.770Z,98771.00
2023-03-29T00:09:06.905Z,98768.84
2023-03-29T00:11:37.215Z,98775.94
2023-03-29T00:14:06.467Z,98759.00
2023-03-29T00:16:35.398Z,98759.56
2023-03-29T00:19:04.733Z,98758.19
2023-03-29T00:21:33.723Z,98753.06
2023-03-29T00:24:02.700Z,98748.38
2023-03-29T00:26:31.651Z,98752.63
2023-03-29T00:29:02.278Z,98759.31
2023-03-29T00:31:31.792Z,98755.66
2023-03-29T00:34:00.743Z,98759.00
2023-03-29T00:36:31.862Z,98756.09
2023-03-29T00:39:00.871Z,98752.00
2023-03-29T00:41:29.759Z,98746.22
2023-03-29T00:44:02.529Z,98741.22
2023-03-29T00:46:32.317Z,98738.59
2023-03-29T00:49:07.757Z,98733.91
2023-03-29T00:51:39.594Z,98736.19
2023-03-29T00:54:15.097Z,98742.13
2023-03-29T00:56:50.108Z,98728.94
2023-03-29T00:59:23.881Z,98730.31
2023-03-29T01:01:59.882Z,98738.94
2023-03-29T01:04:34.014Z,98735.75
2023-03-29T01:07:08.802Z,98743.81
2023-03-29T01:09:41.103Z,98733.19
2023-03-29T01:12:14.579Z,98733.53
2023-03-29T01:14:49.952Z,98724.72
2023-03-29T01:17:21.984Z,98729.56
2023-03-29T01:19:59.126Z,98722.63
2023-03-29T01:22:39.638Z,98731.25
2023-03-29T01:25:17.289Z,98727.72
2023-03-29T01:27:54.691Z,98722.53
2023-03-29T01:30:30.754Z,98727.19
2023-03-29T01:33:04.024Z,98709.13
2023-03-29T01:35:39.829Z,98699.03
2023-03-29T01:38:14.643Z,98706.47
2023-03-29T01:40:43.830Z,98704.84
2023-03-29T01:43:23.719Z,98705.94
2023-03-29T01:46:02.233Z,98691.38
2023-03-29T01:48:34.569Z,98701.50
2023-03-29T01:51:08.474Z,98699.50
2023-03-29T01:53:42.177Z,98698.28
2023-03-29T01:56:15.760Z,98697.16
2023-03-29T01:58:49.261Z,98687.78
2023-03-29T02:01:23.291Z,98691.50
2023-03-29T02:03:56.633Z,98684.56
2023-03-29T02:06:28.760Z,98680.44
2023-03-29T02:08:58.315Z,98666.28
2023-03-29T02:11:29.481Z,98664.50
2023-03-29T02:14:00.014Z,98654.47
2023-03-29T02:16:29.037Z,98659.00
2023-03-29T02:18:58.737Z,98646.06
2023-03-29T02:21:34.282Z,98650.59
2023-03-29T02:24:08.771Z,98648.94
2023-03-29T02:26:38.167Z,98644.97
2023-03-29T02:29:10.058Z,98631.63
2023-03-29T02:31:42.944Z,98629.50
2023-03-29T02:34:20.641Z,98633.25
2023-03-29T02:36:53.634Z,98634.56
2023-03-29T02:39:23.241Z,98639.75
2023-03-29T02:41:55.296Z,98644.81
2023-03-29T02:44:29.439Z,98630.19
2023-03-29T02:47:03.465Z,98638.56
2023-03-29T02:49:32.737Z,98635.69
2023-03-29T02:52:08.663Z,98631.94
2023-03-29T02:54:43.669Z,98636.75
2023-03-29T02:57:13.546Z,98625.66
2023-03-29T02:59:45.133Z,98622.31
2023-03-29T03:02:14.252Z,98627.75
2023-03-29T03:04:44.916Z,98626.56
2023-03-29T03:07:14.274Z,98620.91
2023-03-29T03:09:43.201Z,98624.09
2023-03-29T03:12:12.137Z,98616.88
2023-03-29T03:14:41.191Z,98609.63
2023-03-29T03:17:11.501Z,98611.28
2023-03-29T03:19:40.643Z,98607.19
2023-03-29T03:22:10.194Z,98612.00
2023-03-29T03:24:39.171Z,98611.00
2023-03-29T03:27:08.669Z,98609.47
2023-03-29T03:29:38.740Z,98621.31
2023-03-29T03:32:27.600Z,98615.94
2023-03-29T03:35:19.393Z,98617.63
2023-03-29T03:37:48.734Z,98620.91
2023-03-29T03:40:20.922Z,98621.94
2023-03-29T03:42:50.661Z,98618.31
2023-03-29T03:45:20.502Z,98615.25
2023-03-29T03:47:51.657Z,98615.16
2023-03-29T03:50:26.428Z,98610.13
2023-03-29T03:52:55.756Z,98608.25
2023-03-29T03:55:24.726Z,98611.22
2023-03-29T03:58:08.830Z,98616.03
2023-03-29T04:00:37.865Z,98602.25
2023-03-29T04:03:24.401Z,98608.59
2023-03-29T04:05:54.456Z,98604.88
2023-03-29T04:08:27.398Z,98592.97
2023-03-29T04:11:19.309Z,98601.78
2023-03-29T04:13:48.523Z,98595.59
2023-03-29T04:16:43.775Z,98588.25
2023-03-29T04:19:34.143Z,98590.19
2023-03-29T04:22:03.169Z,98596.38
2023-03-29T04:24:32.167Z,98597.84
2023-03-29T04:27:24.116Z,98593.84
2023-03-29T04:29:53.557Z,98592.69
2023-03-29T04:32:54.332Z,98593.97
2023-03-29T04:35:24.838Z,98596.69
2023-03-29T04:37:54.800Z,98583.28
2023-03-29T04:40:25.464Z,98570.59
2023-03-29T04:43:10.713Z,98570.34
2023-03-29T04:45:45.754Z,98566.16
2023-03-29T04:48:25.903Z,98574.19
2023-03-29T04:50:56.949Z,98564.91
2023-03-29T04:53:26.196Z,98570.59
2023-03-29T04:55:55.864Z,98568.75
2023-03-29T04:58:45.484Z,98578.31
2023-03-29T05:01:15.151Z,98575.16
2023-03-29T05:03:49.347Z,98574.31
2023-03-29T05:06:27.160Z,98568.28
2023-03-29T05:08:56.309Z,98566.59
2023-03-29T05:11:32.908Z,98567.63
2023-03-29T05:14:03.468Z,98556.34
2023-03-29T05:16:35.960Z,98564.72
2023-03-29T05:19:05.743Z,98562.94
2023-03-29T05:21:39.833Z,98561.97
2023-03-29T05:24:12.390Z,98560.38
2023-03-29T05:26:56.619Z,98561.03
2023-03-29T05:29:26.965Z,98553.59
2023-03-29T05:32:08.310Z,98567.25
2023-03-29T05:34:37.357Z,98565.69
2023-03-29T05:37:08.722Z,98572.91
2023-03-29T05:39:50.221Z,98564.34
2023-03-29T05:42:23.774Z,98574.13
2023-03-29T05:44:59.510Z,98574.44
2023-03-29T05:47:28.819Z,98562.50
2023-03-29T05:49:58.053Z,98564.84
2023-03-29T05:52:32.386Z,98564.38
2023-03-29T05:55:01.374Z,98563.50
2023-03-29T05:57:30.811Z,98566.28
2023-03-29T05:59:59.851Z,98572.38
2023-03-29T06:02:29.763Z,98566.41
2023-03-29T06:04:59.662Z,98563.38
2023-03-29T06:07:42.564Z,98567.66
2023-03-29T06:10:18.118Z,98558.84
2023-03-29T06:12:51.765Z,98552.69
2023-03-29T06:15:24.394Z,98554.63
2023-03-29T06:17:58.426Z,98551.22
2023-03-29T06:20:27.558Z,98556.84
2023-03-29T06:23:04.803Z,98551.41
2023-03-29T06:25:34.317Z,98552.88
2023-03-29T06:28:04.273Z,98541.00
2023-03-29T06:30:33.824Z,98540.34
2023-03-29T06:33:03.167Z,98551.31
2023-03-29T06:35:58.722Z,98545.16
2023-03-29T06:38:32.198Z,98534.81
2023-03-29T06:41:12.361Z,98540.50
2023-03-29T06:44:10.213Z,98540.34
2023-03-29T06:46:54.015Z,98536.53
2023-03-29T06:49:23.314Z,98540.69
2023-03-29T06:52:06.848Z,98543.06
2023-03-29T06:54:37.525Z,98539.56
2023-03-29T06:57:08.015Z,98527.13
2023-03-29T06:59:37.250Z,98523.66
2023-03-29T07:02:29.212Z,98533.97
2023-03-29T07:05:18.968Z,98534.34
2023-03-29T07:07:57.172Z,98534.63
2023-03-29T07:10:39.520Z,98533.31
2023-03-29T07:13:27.830Z,98528.31
2023-03-29T07:15:59.944Z,98514.97
2023-03-29T07:18:58.202Z,98522.75
2023-03-29T07:21:46.090Z,98521.00
2023-03-29T07:24:16.841Z,98525.13
2023-03-29T07:27:00.124Z,98519.69
2023-03-29T07:29:32.069Z,98517.91
2023-03-29T07:32:01.260Z,98505.56
2023-03-29T07:34:46.382Z,98515.31
2023-03-29T07:37:26.069Z,98526.31
2023-03-29T07:39:59.814Z,98519.41
2023-03-29T07:42:47.716Z,98520.09
2023-03-29T07:45:26.556Z,98524.03
2023-03-29T07:48:14.805Z,98520.41
2023-03-29T07:51:01.094Z,98523.28
2023-03-29T07:53:35.718Z,98524.03
2023-03-29T07:56:08.141Z,98509.38
2023-03-29T07:58:55.218Z,98514.50
2023-03-29T08:01:24.986Z,98515.09
2023-03-29T08:04:03.428Z,98510.91
2023-03-29T08:07:01.934Z,98520.00
2023-03-29T08:09:54.097Z,98514.31
2023-03-29T08:12:32.563Z,98522.41
2023-03-29T08:15:03.670Z,98517.84
2023-03-29T08:17:37.554Z,98511.31
2023-03-29T08:20:11.230Z,98517.81
2023-03-29T08:22:42.752Z,98510.44
2023-03-29T08:25:17.805Z,98504.84
2023-03-29T08:27:51.112Z,98502.50
2023-03-29T08:30:33.273Z,98503.25
2023-03-29T08:33:03.525Z,98504.97
2023-03-29T08:35:33.023Z,98519.00
2023-03-29T08:38:14.355Z,98508.75
2023-03-29T08:40:44.084Z,98513.31
2023-03-29T08:43:27.159Z,98524.66
2023-03-29T08:46:35.463Z,98519.25
2023-03-29T08:49:32.213Z,98507.78
2023-03-29T08:52:07.826Z,98506.06
2023-03-29T08:54:44.917Z,98500.16
2023-03-29T08:57:34.744Z,98494.94
2023-03-29T09:00:18.110Z,98503.03
2023-03-29T09:02:53.965Z,98497.25
2023-03-29T09:05:28.151Z,98501.72
2023-03-29T09:08:32.953Z,98489.41
2023-03-29T09:11:18.265Z,98503.50
2023-03-29T09:13:57.935Z,98492.44
2023-03-29T09:16:34.830Z,98486.66
2023-03-29T09:19:13.529Z,98490.94
2023-03-29T09:21:49.807Z,98489.34
2023-03-29T09:24:40.842Z,98490.59
2023-03-29T09:27:22.094Z,98476.09
2023-03-29T09:30:07.625Z,98484.44
2023-03-29T09:32:58.577Z,98481.16
2023-03-29T09:35:39.692Z,98489.91
2023-03-29T09:38:13.242Z,98476.41
2023-03-29T09:40:48.113Z,98485.28
2023-03-29T09:43:31.936Z,98487.31
2023-03-29T09:46:06.394Z,98481.75
2023-03-29T09:48:39.437Z,98493.84
2023-03-29T09:51:14.280Z,98496.38
2023-03-29T09:53:43.593Z,98479.84
2023-03-29T09:56:48.148Z,98494.81
2023-03-29T09:59:22.363Z,98504.56
2023-03-29T10:01:51.761Z,98503.41
2023-03-29T10:04:22.430Z,98505.91
2023-03-29T10:07:01.292Z,98521.47
2023-03-29T10:09:32.704Z,98514.13
2023-03-29T10:12:15.410Z,98525.72
2023-03-29T10:14:48.065Z,98519.38
2023-03-29T10:17:21.922Z,98524.13
2023-03-29T10:19:52.575Z,98531.38
2023-03-29T10:22:25.721Z,98532.03
2023-03-29T10:24:58.286Z,98534.28
2023-03-29T10:27:29.547Z,98538.81
2023-03-29T10:30:01.120Z,98535.75
2023-03-29T10:32:35.038Z,98534.94
2023-03-29T10:35:11.041Z,98535.72
2023-03-29T10:37:44.485Z,98534.84
2023-03-29T10:40:23.417Z,98542.56
2023-03-29T10:42:54.035Z,98535.34
2023-03-29T10:45:27.423Z,98536.47
2023-03-29T10:47:57.520Z,98536.22
2023-03-29T10:50:28.317Z,98534.66
2023-03-29T10:52:59.283Z,98536.47
2023-03-29T10:55:36.348Z,98528.44
2023-03-29T10:58:18.784Z,98531.38
2023-03-29T11:00:53.584Z,98531.38
2023-03-29T11:03:49.735Z,98528.88
2023-03-29T11:06:26.773Z,98529.56
2023-03-29T11:09:00.095Z,98546.69
2023-03-29T11:11:48.571Z,98539.25
2023-03-29T11:14:26.841Z,98532.91
2023-03-29T11:17:09.281Z,98538.88
2023-03-29T11:19:57.849Z,98544.00
2023-03-29T11:22:47.200Z,98540.25
2023-03-29T11:25:34.788Z,98540.38
2023-03-29T11:28:11.700Z,98538.78
2023-03-29T11:30:46.150Z,98545.09
2023-03-29T11:33:38.957Z,98546.66
2023-03-29T11:36:16.878Z,98542.13
2023-03-29T11:38:59.635Z,98544.28
2023-03-29T11:41:32.963Z,98537.97
2023-03-29T11:44:07.084Z,98541.88
2023-03-29T11:46:41.018Z,98529.03
2023-03-29T11:49:16.142Z,98535.94
2023-03-29T11:51:47.232Z,98543.53
2023-03-29T11:54:21.725Z,98534.84
2023-03-29T11:56:58.650Z,98536.84
2023-03-29T11:59:35.020Z,98530.13
2023-03-29T12:02:11.744Z,98535.44
2023-03-29T12:04:47.824Z,98533.25
2023-03-29T12:07:21.240Z,98529.63
2023-03-29T12:09:55.733Z,98531.47
2023-03-29T12:12:30.796Z,98535.31
2023-03-29T12:15:07.077Z,98523.38
2023-03-29T12:17:43.267Z,98551.47
2023-03-29T12:20:19.350Z,98525.88
2023-03-29T12:22:52.545Z,98535.75
2023-03-29T12:25:26.557Z,98538.66
2023-03-29T12:28:15.561Z,98536.81
2023-03-29T12:30:52.992Z,98543.00
2023-03-29T12:33:34.093Z,98555.31
2023-03-29T12:36:46.670Z,98547.44
2023-03-29T12:39:42.263Z,98544.19
2023-03-29T12:42:30.835Z,98553.75
2023-03-29T12:45:22.193Z,98548.09
2023-03-29T12:47:53.431Z,98558.19
2023-03-29T12:50:29.093Z,98562.59
2023-03-29T12:53:16.994Z,98551.78
2023-03-29T12:55:55.153Z,98560.97
2023-03-29T12:58:38.959Z,98563.03
2023-03-29T13:01:25.168Z,98563.16
2023-03-29T13:03:58.643Z,98561.34
2023-03-29T13:06:33.907Z,98557.84
2023-03-29T13:09:21.616Z,98565.38
2023-03-29T13:11:54.745Z,98565.38
2023-03-29T13:14:30.133Z,98570.09
2023-03-29T13:17:17.874Z,98569.75
2023-03-29T13:19:54.604Z,98564.84
2023-03-29T13:22:29.792Z,98559.19
2023-03-29T13:25:10.902Z,98572.13
2023-03-29T13:27:49.835Z,98572.13
2023-03-29T13:30:33.029Z,98579.41
2023-03-29T13:33:21.289Z,98573.56
2023-03-29T13:36:01.524Z,98579.66
2023-03-29T13:38:33.317Z,98583.69
2023-03-29T13:41:04.475Z,98582.50
2023-03-29T13:43:51.145Z,98585.88
2023-03-29T13:46:24.859Z,98574.25
2023-03-29T13:49:05.556Z,98587.59
2023-03-29T13:51:39.996Z,98590.06
2023-03-29T13:54:21.487Z,98590.59
2023-03-29T13:57:13.968Z,98588.34
2023-03-29T13:59:50.672Z,98589.75
2023-03-29T14:02:39.316Z,98595.44
2023-03-29T14:05:13.150Z,98586.44
2023-03-29T14:07:47.381Z,98598.53
2023-03-29T14:10:20.268Z,98592.22
2023-03-29T14:12:50.084Z,98590.34
2023-03-29T14:15:27.836Z,98588.91
2023-03-29T14:18:00.791Z,98592.28
2023-03-29T14:20:34.205Z,98597.13
2023-03-29T14:23:13.261Z,98597.06
2023-03-29T14:25:43.346Z,98599.38
2023-03-29T14:28:21.970Z,98595.53
2023-03-29T14:30:52.919Z,98604.88
2023-03-29T14:33:27.549Z,98600.78
2023-03-29T14:36:00.987Z,98604.16
2023-03-29T14:38:31.552Z,98609.59
2023-03-29T14:41:02.528Z,98597.56
2023-03-29T14:43:33.096Z,98605.97
2023-03-29T14:46:05.640Z,98602.75
2023-03-29T14:48:35.910Z,98605.69
2023-03-29T14:51:08.511Z,98609.47
2023-03-29T14:53:39.169Z,98612.22
2023-03-29T14:56:12.544Z,98616.34
2023-03-29T14:58:46.881Z,98634.63
2023-03-29T15:01:19.363Z,98636.97
2023-03-29T15:03:54.953Z,98626.59
2023-03-29T15:06:27.187Z,98636.69
2023-03-29T15:09:06.140Z,98637.50
2023-03-29T15:11:40.042Z,98642.66
2023-03-29T15:14:18.256Z,98630.50
2023-03-29T15:16:48.719Z,98639.53
2023-03-29T15:19:20.626Z,98648.75
2023-03-29T15:21:55.083Z,98638.91
2023-03-29T15:24:34.013Z,98637.22
2023-03-29T15:27:12.539Z,98649.16
2023-03-29T15:29:43.971Z,98647.59
2023-03-29T15:32:22.777Z,98651.97
2023-03-29T15:35:00.572Z,98651.47
2023-03-29T15:37:34.184Z,98654.97
2023-03-29T15:40:09.993Z,98654.19
2023-03-29T15:42:39.159Z,98656.41
2023-03-29T15:45:15.832Z,98646.53
2023-03-29T15:47:45.195Z,98654.56
2023-03-29T15:50:15.621Z,98652.22
2023-03-29T15:52:46.485Z,98660.16
2023-03-29T15:55:15.912Z,98673.19
2023-03-29T15:57:49.030Z,98672.19
2023-03-29T16:00:24.338Z,98674.25
2023-03-29T16:02:54.512Z,98675.16
2023-03-29T16:05:23.547Z,98677.38
2023-03-29T16:07:54.321Z,98678.38
2023-03-29T16:10:23.452Z,98681.50
2023-03-29T16:12:52.466Z,98678.38
2023-03-29T16:15:24.187Z,98683.56
2023-03-29T16:17:53.685Z,98689.25
2023-03-29T16:20:22.890Z,98691.06
2023-03-29T16:22:55.533Z,98700.38
2023-03-29T16:25:25.278Z,98690.31
2023-03-29T16:27:54.367Z,98697.16
2023-03-29T16:30:25.241Z,98700.16
2023-03-29T16:33:02.069Z,98695.44
2023-03-29T16:35:33.463Z,98698.28
2023-03-29T16:38:04.440Z,98700.38
2023-03-29T16:40:34.917Z,98712.56
2023-03-29T16:43:07.811Z,98706.06
2023-03-29T16:45:44.340Z,98713.31
2023-03-29T16:48:15.288Z,98708.44
2023-03-29T16:50:44.422Z,98706.34
2023-03-29T16:53:19.068Z,98723.72
2023-03-29T16:55:49.369Z,98705.06
2023-03-29T16:58:20.877Z,98704.94
2023-03-29T17:00:52.260Z,98707.91
2023-03-29T17:03:21.880Z,98720.34
2023-03-29T17:05:51.202Z,98712.84
2023-03-29T17:08:27.972Z,98721.38
2023-03-29T17:10:58.151Z,98716.59
2023-03-29T17:13:27.969Z,98719.81
2023-03-29T17:15:58.874Z,98723.03
2023-03-29T17:18:31.287Z,98721.38
2023-03-29T17:21:02.081Z,98729.63
2023-03-29T17:23:32.846Z,98713.84
2023-03-29T17:26:02.371Z,98725.78
2023-03-29T17:28:31.579Z,98719.81
2023-03-29T17:31:04.162Z,98722.28
2023-03-29T17:33:35.585Z,98717.91
2023-03-29T17:36:06.445Z,98730.84
2023-03-29T17:38:38.391Z,98733.16
2023-03-29T17:41:08.540Z,98725.50
2023-03-29T17:43:38.223Z,98723.34
2023-03-29T17:46:07.938Z,98728.09
2023-03-29T17:48:38.391Z,98727.88
2023-03-29T17:51:08.396Z,98740.94
2023-03-29T17:53:39.266Z,98736.66
2023-03-29T17:56:10.080Z,98738.22
2023-03-29T17:58:45.624Z,98740.03
2023-03-29T18:01:19.959Z,98732.78
2023-03-29T18:03:50.147Z,98735.75
2023-03-29T18:06:21.110Z,98741.97
2023-03-29T18:08:53.289Z,98749.09
2023-03-29T18:11:25.032Z,98750.09
2023-03-29T18:13:54.883Z,98752.69
2023-03-29T18:16:24.254Z,98747.00
2023-03-29T18:18:53.709Z,98743.41
2023-03-29T18:21:22.840Z,98753.88
2023-03-29T18:23:55.550Z,98749.06
2023-03-29T18:26:26.188Z,98752.56
2023-03-29T18:28:55.403Z,98751.41
2023-03-29T18:31:24.539Z,98753.75
2023-03-29T18:33:53.971Z,98755.28
2023-03-29T18:36:25.503Z,98753.09
2023-03-29T18:38:56.363Z,98747.78
2023-03-29T18:41:26.148Z,98752.69
2023-03-29T18:43:57.514Z,98753.22
2023-03-29T18:46:30.608Z,98752.19
2023-03-29T18:49:02.893Z,98751.91
2023-03-29T18:51:33.178Z,98763.44
2023-03-29T18:54:04.558Z,98767.19
2023-03-29T18:56:33.703Z,98767.72
2023-03-29T18:59:05.379Z,98763.84
2023-03-29T19:01:35.899Z,98765.66
2023-03-29T19:04:05.295Z,98762.28
2023-03-29T19:06:34.617Z,98763.28
2023-03-29T19:09:05.453Z,98768.34
2023-03-29T19:11:36.212Z,98760.47
2023-03-29T19:14:15.512Z,98764.22
2023-03-29T19:16:44.644Z,98760.31
2023-03-29T19:19:14.224Z,98760.72
2023-03-29T19:21:48.894Z,98762.28
2023-03-29T19:24:19.743Z,98768.34
2023-03-29T19:26:50.156Z,98769.50
2023-03-29T19:29:19.709Z,98771.09
2023-03-29T19:31:48.977Z,98776.78
2023-03-29T19:34:20.864Z,98773.94
2023-03-29T19:36:51.979Z,98781.78
2023-03-29T19:39:25.265Z,98780.09
2023-03-29T19:41:55.216Z,98775.69
2023-03-29T19:44:24.806Z,98778.03
2023-03-29T19:46:56.523Z,98778.03
2023-03-29T19:49:25.799Z,98777.91
2023-03-29T19:51:55.690Z,98774.41
2023-03-29T19:54:26.642Z,98781.38
2023-03-29T19:56:57.499Z,98777.78
2023-03-29T19:59:27.732Z,98783.84
2023-03-29T20:02:18.052Z,98781.38
2023-03-29T20:04:51.306Z,98780.50
2023-03-29T20:07:20.812Z,98781.13
2023-03-29T20:09:51.491Z,98788.13
2023-03-29T20:12:20.839Z,98792.63
2023-03-29T20:14:49.917Z,98788.38
2023-03-29T20:17:18.920Z,98782.44
2023-03-29T20:19:48.016Z,98783.47
2023-03-29T20:22:17.042Z,98778.81
2023-03-29T20:24:46.423Z,98786.06
2023-03-29T20:27:17.096Z,98782.44
2023-03-29T20:29:46.730Z,98772.09
2023-03-29T20:32:15.948Z,98781.38
2023-03-29T20:34:45.198Z,98783.19
2023-03-29T20:37:14.770Z,98783.84
2023-03-29T20:39:43.852Z,98791.47
2023-03-29T20:42:14.287Z,98793.94
2023-03-29T20:44:50.734Z,98797.16
2023-03-29T20:47:27.701Z,98791.19
2023-03-29T20:49:56.926Z,98791.19
2023-03-29T20:52:31.011Z,98786.03
2023-03-29T20:55:00.693Z,98788.50
2023-03-29T20:57:30.572Z,98791.84
2023-03-29T21:00:12.053Z,98790.97
2023-03-29T21:02:41.430Z,98785.63
2023-03-29T21:05:11.593Z,98805.56
2023-03-29T21:07:40.565Z,98801.31
2023-03-29T21:10:10.298Z,98814.34
2023-03-29T21:12:40.250Z,98801.31
2023-03-29T21:15:13.620Z,98803.88
2023-03-29T21:17:43.117Z,98804.22
2023-03-29T21:20:14.755Z,98794.50
2023-03-29T21:22:44.463Z,98802.63
2023-03-29T21:25:16.041Z,98805.19
2023-03-29T21:27:45.529Z,98800.41
2023-03-29T21:30:16.596Z,98809.56
2023-03-29T21:32:45.752Z,98805.03
2023-03-29T21:35:15.273Z,98816.00
2023-03-29T21:37:47.024Z,98811.59
2023-03-29T21:40:16.179Z,98811.50
2023-03-29T21:42:45.417Z,98805.38
2023-03-29T21:45:15.981Z,98803.56
2023-03-29T21:47:45.097Z,98807.22
2023-03-29T21:50:14.294Z,98800.22
2023-03-29T21:52:43.526Z,98796.47
2023-03-29T21:55:13.638Z,98793.75
2023-03-29T21:57:43.233Z,98797.38
2023-03-29T22:00:17.560Z,98799.69
2023-03-29T22:02:46.782Z,98804.34
2023-03-29T22:05:16.348Z,98799.97
2023-03-29T22:07:45.479Z,98800.88
2023-03-29T22:10:15.773Z,98794.91
2023-03-29T22:12:45.819Z,98796.59
2023-03-29T22:15:17.246Z,98799.06
2023-03-29T22:17:48.322Z,98798.13
2023-03-29T22:20:18.686Z,98795.53
2023-03-29T22:22:49.922Z,98799.69
2023-03-29T22:25:19.360Z,98799.69
2023-03-29T22:27:49.401Z,98800.72
2023-03-29T22:30:20.379Z,98801.66
2023-03-29T22:32:50.663Z,98801.78
2023-03-29T22:35:19.794Z,98803.31
2023-03-29T22:37:48.860Z,98798.13
2023-03-29T22:40:18.159Z,98799.97
2023-03-29T22:42:47.169Z,98795.53
2023-03-29T22:45:16.413Z,98803.06
2023-03-29T22:47:46.795Z,98796.84
2023-03-29T22:50:15.866Z,98799.41
2023-03-29T22:52:45.271Z,98785.59
2023-03-29T22:55:14.251Z,98789.97
2023-03-29T22:57:43.828Z,98788.28
2023-03-29T23:00:13.922Z,98790.88
2023-03-29T23:02:42.956Z,98788.28
2023-03-29T23:05:13.726Z,98793.47
2023-03-29T23:07:42.603Z,98785.72
2023-03-29T23:10:13.092Z,98784.81
2023-03-29T23:12:43.080Z,98787.53
2023-03-29T23:15:13.342Z,98792.72
2023-03-29T23:17:42.305Z,98785.72
2023-03-29T23:20:14.069Z,98793.75
2023-03-29T23:22:43.233Z,98789.34
2023-03-29T23:25:12.166Z,98787.78
2023-03-29T23:27:42.481Z,98788.72
2023-03-29T23:30:11.988Z,98788.84
2023-03-29T23:32:41.150Z,98791.44
2023-03-29T23:35:10.726Z,98789.63
2023-03-29T23:37:41.416Z,98784.97
2023-03-29T23:40:12.021Z,98794.53
2023-03-29T23:42:42.360Z,98792.06
2023-03-29T23:45:14.380Z,98788.44
2023-03-29T23:47:44.217Z,98788.56
2023-03-29T23:50:15.601Z,98777.84
2023-03-29T23:52:46.757Z,98783.91
2023-03-29T23:55:16.640Z,98786.59
2023-03-29T23:57:45.658Z,98778.72
